sensor_id;sensor_type;location;lat;lon;timestamp;P1;durP1;ratioP1;P2;durP2;ratioP2
58697;SDS011;44475;53.206;-6.106;2024-01-06T00:02:03;7.55;;;4.75;;
58697;SDS011;44475;53.206;-6.106;2024-01-06T00:04:30;6.50;;;4.82;;
58697;SDS011;44475;53.206;-6.106;2024-01-06T00:06:57;9.38;;;4.60;;
58697;SDS011;44475;53.206;-6.106;2024-01-06T00:09:23;8.30;;;4.60;;
58697;SDS011;44475;53.206;-6.106;2024-01-06T00:11:49;6.68;;;4.10;;
58697;SDS011;44475;53.206;-6.106;2024-01-06T00:14:16;6.57;;;4.28;;
58697;SDS011;44475;53.206;-6.106;2024-01-06T00:16:42;10.32;;;4.60;;
58697;SDS011;44475;53.206;-6.106;2024-01-06T00:19:08;8.65;;;3.97;;
58697;SDS011;44475;53.206;-6.106;2024-01-06T00:21:36;10.05;;;4.15;;
58697;SDS011;44475;53.206;-6.106;2024-01-06T00:24:22;19.90;;;4.07;;
58697;SDS011;44475;53.206;-6.106;2024-01-06T00:26:53;10.95;;;3.70;;
58697;SDS011;44475;53.206;-6.106;2024-01-06T00:29:22;7.50;;;3.60;;
58697;SDS011;44475;53.206;-6.106;2024-01-06T00:31:51;9.68;;;3.47;;
58697;SDS011;44475;53.206;-6.106;2024-01-06T00:34:21;7.07;;;3.50;;
58697;SDS011;44475;53.206;-6.106;2024-01-06T00:36:53;6.05;;;3.40;;
58697;SDS011;44475;53.206;-6.106;2024-01-06T00:39:21;5.72;;;3.63;;
58697;SDS011;44475;53.206;-6.106;2024-01-06T00:41:53;9.18;;;3.50;;
58697;SDS011;44475;53.206;-6.106;2024-01-06T00:44:24;6.25;;;3.42;;
58697;SDS011;44475;53.206;-6.106;2024-01-06T00:46:55;6.90;;;3.30;;
58697;SDS011;44475;53.206;-6.106;2024-01-06T00:57:03;6.13;;;3.10;;
58697;SDS011;44475;53.206;-6.106;2024-01-06T00:59:29;4.35;;;3.10;;
58697;SDS011;44475;53.206;-6.106;2024-01-06T01:01:56;6.72;;;2.80;;
58697;SDS011;44475;53.206;-6.106;2024-01-06T01:04:23;4.28;;;2.90;;
58697;SDS011;44475;53.206;-6.106;2024-01-06T01:06:50;6.90;;;2.88;;
58697;SDS011;44475;53.206;-6.106;2024-01-06T01:09:17;5.70;;;3.10;;
58697;SDS011;44475;53.206;-6.106;2024-01-06T01:11:43;5.20;;;2.92;;
58697;SDS011;44475;53.206;-6.106;2024-01-06T01:14:09;5.70;;;2.92;;
58697;SDS011;44475;53.206;-6.106;2024-01-06T01:16:35;5.57;;;2.75;;
58697;SDS011;44475;53.206;-6.106;2024-01-06T01:19:02;3.75;;;2.42;;
58697;SDS011;44475;53.206;-6.106;2024-01-06T01:21:28;4.57;;;2.70;;
58697;SDS011;44475;53.206;-6.106;2024-01-06T01:23:55;4.63;;;2.67;;
58697;SDS011;44475;53.206;-6.106;2024-01-06T01:26:22;5.35;;;2.47;;
58697;SDS011;44475;53.206;-6.106;2024-01-06T01:28:48;6.88;;;2.70;;
58697;SDS011;44475;53.206;-6.106;2024-01-06T01:31:14;3.97;;;2.45;;
58697;SDS011;44475;53.206;-6.106;2024-01-06T01:33:41;4.88;;;2.60;;
58697;SDS011;44475;53.206;-6.106;2024-01-06T01:36:07;4.65;;;2.60;;
58697;SDS011;44475;53.206;-6.106;2024-01-06T01:38:34;4.40;;;2.53;;
58697;SDS011;44475;53.206;-6.106;2024-01-06T01:41:00;3.53;;;2.40;;
58697;SDS011;44475;53.206;-6.106;2024-01-06T01:43:26;6.82;;;2.58;;
58697;SDS011;44475;53.206;-6.106;2024-01-06T01:45:54;4.57;;;2.50;;
58697;SDS011;44475;53.206;-6.106;2024-01-06T01:48:21;5.38;;;2.50;;
58697;SDS011;44475;53.206;-6.106;2024-01-06T01:50:49;4.40;;;2.50;;
58697;SDS011;44475;53.206;-6.106;2024-01-06T01:53:15;4.05;;;2.20;;
58697;SDS011;44475;53.206;-6.106;2024-01-06T01:55:42;4.00;;;2.30;;
58697;SDS011;44475;53.206;-6.106;2024-01-06T01:58:10;4.65;;;2.47;;
58697;SDS011;44475;53.206;-6.106;2024-01-06T02:00:39;4.60;;;2.20;;
58697;SDS011;44475;53.206;-6.106;2024-01-06T02:03:05;4.53;;;2.50;;
58697;SDS011;44475;53.206;-6.106;2024-01-06T02:05:32;4.32;;;2.20;;
58697;SDS011;44475;53.206;-6.106;2024-01-06T02:07:59;3.15;;;2.10;;
58697;SDS011;44475;53.206;-6.106;2024-01-06T02:10:25;8.93;;;2.45;;
58697;SDS011;44475;53.206;-6.106;2024-01-06T02:12:52;5.28;;;2.17;;
58697;SDS011;44475;53.206;-6.106;2024-01-06T02:15:18;10.30;;;2.20;;
58697;SDS011;44475;53.206;-6.106;2024-01-06T02:17:45;3.72;;;2.08;;
58697;SDS011;44475;53.206;-6.106;2024-01-06T02:20:11;5.07;;;2.20;;
58697;SDS011;44475;53.206;-6.106;2024-01-06T02:22:39;10.23;;;2.22;;
58697;SDS011;44475;53.206;-6.106;2024-01-06T02:25:06;6.13;;;2.22;;
58697;SDS011;44475;53.206;-6.106;2024-01-06T02:27:38;4.47;;;2.42;;
58697;SDS011;44475;53.206;-6.106;2024-01-06T02:30:05;4.22;;;2.30;;
58697;SDS011;44475;53.206;-6.106;2024-01-06T02:32:32;5.05;;;1.95;;
58697;SDS011;44475;53.206;-6.106;2024-01-06T02:34:59;3.75;;;2.25;;
58697;SDS011;44475;53.206;-6.106;2024-01-06T02:37:26;3.30;;;2.10;;
58697;SDS011;44475;53.206;-6.106;2024-01-06T02:39:52;3.90;;;2.00;;
58697;SDS011;44475;53.206;-6.106;2024-01-06T02:42:19;3.65;;;2.00;;
58697;SDS011;44475;53.206;-6.106;2024-01-06T02:44:45;3.47;;;2.05;;
58697;SDS011;44475;53.206;-6.106;2024-01-06T02:47:12;4.97;;;2.25;;
58697;SDS011;44475;53.206;-6.106;2024-01-06T02:49:38;3.38;;;1.80;;
58697;SDS011;44475;53.206;-6.106;2024-01-06T02:52:04;2.50;;;1.70;;
58697;SDS011;44475;53.206;-6.106;2024-01-06T02:54:31;6.50;;;1.90;;
58697;SDS011;44475;53.206;-6.106;2024-01-06T02:56:57;3.88;;;1.92;;
58697;SDS011;44475;53.206;-6.106;2024-01-06T02:59:23;5.15;;;2.10;;
58697;SDS011;44475;53.206;-6.106;2024-01-06T03:01:50;3.50;;;2.00;;
58697;SDS011;44475;53.206;-6.106;2024-01-06T03:04:16;4.25;;;2.00;;
58697;SDS011;44475;53.206;-6.106;2024-01-06T03:06:42;4.47;;;1.83;;
58697;SDS011;44475;53.206;-6.106;2024-01-06T03:09:09;3.10;;;1.80;;
58697;SDS011;44475;53.206;-6.106;2024-01-06T03:11:35;2.55;;;1.65;;
58697;SDS011;44475;53.206;-6.106;2024-01-06T03:14:02;4.07;;;1.95;;
58697;SDS011;44475;53.206;-6.106;2024-01-06T03:16:28;3.50;;;1.75;;
58697;SDS011;44475;53.206;-6.106;2024-01-06T03:18:55;4.03;;;1.75;;
58697;SDS011;44475;53.206;-6.106;2024-01-06T03:21:21;3.30;;;1.80;;
58697;SDS011;44475;53.206;-6.106;2024-01-06T03:23:48;4.45;;;1.90;;
58697;SDS011;44475;53.206;-6.106;2024-01-06T03:26:14;4.80;;;1.88;;
58697;SDS011;44475;53.206;-6.106;2024-01-06T03:28:42;4.43;;;1.90;;
58697;SDS011;44475;53.206;-6.106;2024-01-06T03:31:08;5.55;;;1.90;;
58697;SDS011;44475;53.206;-6.106;2024-01-06T03:33:35;2.80;;;1.70;;
58697;SDS011;44475;53.206;-6.106;2024-01-06T03:36:05;2.95;;;1.60;;
58697;SDS011;44475;53.206;-6.106;2024-01-06T03:38:32;3.47;;;1.75;;
58697;SDS011;44475;53.206;-6.106;2024-01-06T03:40:58;4.28;;;1.80;;
58697;SDS011;44475;53.206;-6.106;2024-01-06T03:43:25;2.50;;;1.80;;
58697;SDS011;44475;53.206;-6.106;2024-01-06T03:45:51;3.28;;;1.75;;
58697;SDS011;44475;53.206;-6.106;2024-01-06T03:48:21;3.22;;;1.67;;
58697;SDS011;44475;53.206;-6.106;2024-01-06T03:50:48;3.17;;;1.60;;
58697;SDS011;44475;53.206;-6.106;2024-01-06T03:53:14;3.75;;;1.77;;
58697;SDS011;44475;53.206;-6.106;2024-01-06T03:55:40;7.70;;;1.80;;
58697;SDS011;44475;53.206;-6.106;2024-01-06T03:58:07;4.55;;;1.80;;
58697;SDS011;44475;53.206;-6.106;2024-01-06T04:00:33;3.25;;;1.80;;
58697;SDS011;44475;53.206;-6.106;2024-01-06T04:02:59;2.95;;;1.73;;
58697;SDS011;44475;53.206;-6.106;2024-01-06T04:05:26;3.83;;;1.85;;
58697;SDS011;44475;53.206;-6.106;2024-01-06T04:07:52;3.28;;;1.60;;
58697;SDS011;44475;53.206;-6.106;2024-01-06T04:10:18;4.22;;;1.70;;
58697;SDS011;44475;53.206;-6.106;2024-01-06T04:12:45;3.13;;;1.48;;
58697;SDS011;44475;53.206;-6.106;2024-01-06T04:15:11;3.08;;;1.73;;
58697;SDS011;44475;53.206;-6.106;2024-01-06T04:17:37;3.33;;;1.60;;
58697;SDS011;44475;53.206;-6.106;2024-01-06T04:20:04;3.00;;;1.70;;
58697;SDS011;44475;53.206;-6.106;2024-01-06T04:22:31;2.22;;;1.60;;
58697;SDS011;44475;53.206;-6.106;2024-01-06T04:24:57;3.05;;;1.67;;
58697;SDS011;44475;53.206;-6.106;2024-01-06T04:27:24;2.55;;;1.50;;
58697;SDS011;44475;53.206;-6.106;2024-01-06T04:29:50;2.42;;;1.52;;
58697;SDS011;44475;53.206;-6.106;2024-01-06T04:32:18;3.65;;;1.63;;
58697;SDS011;44475;53.206;-6.106;2024-01-06T04:34:45;2.03;;;1.45;;
58697;SDS011;44475;53.206;-6.106;2024-01-06T04:37:11;2.83;;;1.63;;
58697;SDS011;44475;53.206;-6.106;2024-01-06T04:39:37;2.38;;;1.60;;
58697;SDS011;44475;53.206;-6.106;2024-01-06T04:42:04;3.45;;;1.48;;
58697;SDS011;44475;53.206;-6.106;2024-01-06T04:44:33;3.20;;;1.58;;
58697;SDS011;44475;53.206;-6.106;2024-01-06T04:46:59;2.88;;;1.60;;
58697;SDS011;44475;53.206;-6.106;2024-01-06T04:49:25;2.90;;;1.50;;
58697;SDS011;44475;53.206;-6.106;2024-01-06T04:51:52;3.28;;;1.70;;
58697;SDS011;44475;53.206;-6.106;2024-01-06T04:54:19;2.20;;;1.55;;
58697;SDS011;44475;53.206;-6.106;2024-01-06T04:56:47;3.60;;;1.50;;
58697;SDS011;44475;53.206;-6.106;2024-01-06T04:59:15;1.90;;;1.45;;
58697;SDS011;44475;53.206;-6.106;2024-01-06T05:01:41;2.63;;;1.42;;
58697;SDS011;44475;53.206;-6.106;2024-01-06T05:04:07;3.40;;;1.60;;
58697;SDS011;44475;53.206;-6.106;2024-01-06T05:06:34;1.73;;;1.30;;
58697;SDS011;44475;53.206;-6.106;2024-01-06T05:09:00;3.97;;;1.67;;
58697;SDS011;44475;53.206;-6.106;2024-01-06T05:11:27;2.15;;;1.50;;
58697;SDS011;44475;53.206;-6.106;2024-01-06T05:13:53;3.50;;;1.67;;
58697;SDS011;44475;53.206;-6.106;2024-01-06T05:16:20;2.65;;;1.40;;
58697;SDS011;44475;53.206;-6.106;2024-01-06T05:18:46;2.50;;;1.50;;
58697;SDS011;44475;53.206;-6.106;2024-01-06T05:21:12;3.83;;;1.60;;
58697;SDS011;44475;53.206;-6.106;2024-01-06T05:23:39;1.98;;;1.30;;
58697;SDS011;44475;53.206;-6.106;2024-01-06T05:26:05;3.13;;;1.40;;
58697;SDS011;44475;53.206;-6.106;2024-01-06T05:28:32;2.10;;;1.50;;
58697;SDS011;44475;53.206;-6.106;2024-01-06T05:30:58;3.20;;;1.50;;
58697;SDS011;44475;53.206;-6.106;2024-01-06T05:33:27;2.95;;;1.60;;
58697;SDS011;44475;53.206;-6.106;2024-01-06T05:35:56;6.40;;;1.70;;
58697;SDS011;44475;53.206;-6.106;2024-01-06T05:38:26;3.38;;;1.50;;
58697;SDS011;44475;53.206;-6.106;2024-01-06T05:40:55;5.57;;;1.60;;
58697;SDS011;44475;53.206;-6.106;2024-01-06T05:43:26;2.47;;;1.45;;
58697;SDS011;44475;53.206;-6.106;2024-01-06T05:45:54;3.97;;;1.58;;
58697;SDS011;44475;53.206;-6.106;2024-01-06T05:48:21;3.33;;;1.60;;
58697;SDS011;44475;53.206;-6.106;2024-01-06T05:50:47;2.92;;;1.50;;
58697;SDS011;44475;53.206;-6.106;2024-01-06T05:53:15;3.13;;;1.50;;
58697;SDS011;44475;53.206;-6.106;2024-01-06T05:55:43;11.57;;;2.00;;
58697;SDS011;44475;53.206;-6.106;2024-01-06T05:58:10;2.25;;;1.30;;
58697;SDS011;44475;53.206;-6.106;2024-01-06T06:00:36;2.70;;;1.38;;
58697;SDS011;44475;53.206;-6.106;2024-01-06T06:03:04;2.08;;;1.30;;
58697;SDS011;44475;53.206;-6.106;2024-01-06T06:05:30;2.67;;;1.50;;
58697;SDS011;44475;53.206;-6.106;2024-01-06T06:07:58;3.55;;;1.60;;
58697;SDS011;44475;53.206;-6.106;2024-01-06T06:10:25;2.58;;;1.42;;
58697;SDS011;44475;53.206;-6.106;2024-01-06T06:13:05;3.40;;;1.63;;
58697;SDS011;44475;53.206;-6.106;2024-01-06T06:15:32;3.17;;;1.60;;
58697;SDS011;44475;53.206;-6.106;2024-01-06T06:17:58;2.72;;;1.30;;
58697;SDS011;44475;53.206;-6.106;2024-01-06T06:20:25;3.63;;;1.20;;
58697;SDS011;44475;53.206;-6.106;2024-01-06T06:22:52;1.88;;;1.38;;
58697;SDS011;44475;53.206;-6.106;2024-01-06T06:25:19;2.55;;;1.38;;
58697;SDS011;44475;53.206;-6.106;2024-01-06T06:27:45;2.38;;;1.40;;
58697;SDS011;44475;53.206;-6.106;2024-01-06T06:30:12;2.25;;;1.50;;
58697;SDS011;44475;53.206;-6.106;2024-01-06T06:32:39;2.60;;;1.30;;
58697;SDS011;44475;53.206;-6.106;2024-01-06T06:35:06;1.60;;;1.10;;
58697;SDS011;44475;53.206;-6.106;2024-01-06T06:37:32;2.17;;;1.30;;
58697;SDS011;44475;53.206;-6.106;2024-01-06T06:39:59;1.98;;;1.30;;
58697;SDS011;44475;53.206;-6.106;2024-01-06T06:42:26;2.50;;;1.30;;
58697;SDS011;44475;53.206;-6.106;2024-01-06T06:44:53;1.67;;;1.10;;
58697;SDS011;44475;53.206;-6.106;2024-01-06T06:47:19;2.20;;;1.30;;
58697;SDS011;44475;53.206;-6.106;2024-01-06T06:49:46;2.63;;;1.38;;
58697;SDS011;44475;53.206;-6.106;2024-01-06T06:52:12;1.98;;;1.30;;
58697;SDS011;44475;53.206;-6.106;2024-01-06T06:54:38;2.28;;;1.38;;
58697;SDS011;44475;53.206;-6.106;2024-01-06T06:57:05;2.05;;;1.20;;
58697;SDS011;44475;53.206;-6.106;2024-01-06T06:59:31;2.92;;;1.30;;
58697;SDS011;44475;53.206;-6.106;2024-01-06T07:01:57;2.92;;;1.30;;
58697;SDS011;44475;53.206;-6.106;2024-01-06T07:04:23;3.72;;;1.42;;
58697;SDS011;44475;53.206;-6.106;2024-01-06T07:06:51;1.38;;;1.27;;
58697;SDS011;44475;53.206;-6.106;2024-01-06T07:09:19;2.13;;;1.20;;
58697;SDS011;44475;53.206;-6.106;2024-01-06T07:11:48;2.55;;;1.40;;
58697;SDS011;44475;53.206;-6.106;2024-01-06T07:14:16;2.28;;;1.30;;
58697;SDS011;44475;53.206;-6.106;2024-01-06T07:16:43;2.90;;;1.40;;
58697;SDS011;44475;53.206;-6.106;2024-01-06T07:19:10;2.28;;;1.27;;
58697;SDS011;44475;53.206;-6.106;2024-01-06T07:21:37;2.63;;;1.33;;
58697;SDS011;44475;53.206;-6.106;2024-01-06T07:24:03;3.58;;;1.40;;
58697;SDS011;44475;53.206;-6.106;2024-01-06T07:26:29;1.65;;;1.23;;
58697;SDS011;44475;53.206;-6.106;2024-01-06T07:28:56;2.25;;;1.20;;
58697;SDS011;44475;53.206;-6.106;2024-01-06T07:31:22;2.50;;;1.48;;
58697;SDS011;44475;53.206;-6.106;2024-01-06T07:33:49;2.90;;;1.38;;
58697;SDS011;44475;53.206;-6.106;2024-01-06T07:36:15;2.40;;;1.35;;
58697;SDS011;44475;53.206;-6.106;2024-01-06T07:38:42;2.25;;;1.52;;
58697;SDS011;44475;53.206;-6.106;2024-01-06T07:41:11;1.85;;;1.20;;
58697;SDS011;44475;53.206;-6.106;2024-01-06T07:43:37;1.58;;;1.23;;
58697;SDS011;44475;53.206;-6.106;2024-01-06T07:46:03;2.08;;;1.30;;
58697;SDS011;44475;53.206;-6.106;2024-01-06T07:48:32;1.92;;;1.30;;
58697;SDS011;44475;53.206;-6.106;2024-01-06T07:50:58;2.47;;;1.30;;
58697;SDS011;44475;53.206;-6.106;2024-01-06T07:53:24;2.50;;;1.40;;
58697;SDS011;44475;53.206;-6.106;2024-01-06T07:55:51;3.70;;;1.35;;
58697;SDS011;44475;53.206;-6.106;2024-01-06T07:58:17;2.20;;;1.50;;
58697;SDS011;44475;53.206;-6.106;2024-01-06T08:00:43;1.85;;;1.23;;
58697;SDS011;44475;53.206;-6.106;2024-01-06T08:03:10;1.65;;;1.15;;
58697;SDS011;44475;53.206;-6.106;2024-01-06T08:05:37;2.53;;;1.30;;
58697;SDS011;44475;53.206;-6.106;2024-01-06T08:08:03;2.53;;;1.27;;
58697;SDS011;44475;53.206;-6.106;2024-01-06T08:10:30;2.92;;;1.30;;
58697;SDS011;44475;53.206;-6.106;2024-01-06T08:12:57;4.78;;;1.40;;
58697;SDS011;44475;53.206;-6.106;2024-01-06T08:15:25;1.60;;;1.10;;
58697;SDS011;44475;53.206;-6.106;2024-01-06T08:17:51;2.85;;;1.33;;
58697;SDS011;44475;53.206;-6.106;2024-01-06T08:20:17;2.63;;;1.30;;
58697;SDS011;44475;53.206;-6.106;2024-01-06T08:22:44;2.38;;;1.27;;
58697;SDS011;44475;53.206;-6.106;2024-01-06T08:25:11;1.45;;;1.15;;
58697;SDS011;44475;53.206;-6.106;2024-01-06T08:27:39;6.43;;;1.20;;
58697;SDS011;44475;53.206;-6.106;2024-01-06T08:30:06;2.22;;;1.23;;
58697;SDS011;44475;53.206;-6.106;2024-01-06T08:32:33;2.03;;;1.20;;
58697;SDS011;44475;53.206;-6.106;2024-01-06T08:34:59;2.22;;;1.30;;
58697;SDS011;44475;53.206;-6.106;2024-01-06T08:37:25;4.43;;;1.30;;
58697;SDS011;44475;53.206;-6.106;2024-01-06T08:39:52;1.95;;;1.20;;
58697;SDS011;44475;53.206;-6.106;2024-01-06T08:42:18;2.92;;;1.23;;
58697;SDS011;44475;53.206;-6.106;2024-01-06T08:44:45;3.13;;;1.15;;
58697;SDS011;44475;53.206;-6.106;2024-01-06T08:47:12;2.42;;;1.30;;
58697;SDS011;44475;53.206;-6.106;2024-01-06T08:49:38;1.48;;;1.23;;
58697;SDS011;44475;53.206;-6.106;2024-01-06T08:52:05;3.55;;;1.40;;
58697;SDS011;44475;53.206;-6.106;2024-01-06T08:54:31;2.22;;;1.30;;
58697;SDS011;44475;53.206;-6.106;2024-01-06T08:56:58;1.98;;;1.23;;
58697;SDS011;44475;53.206;-6.106;2024-01-06T08:59:24;1.90;;;1.20;;
58697;SDS011;44475;53.206;-6.106;2024-01-06T09:01:50;1.98;;;1.17;;
58697;SDS011;44475;53.206;-6.106;2024-01-06T09:04:18;1.75;;;1.20;;
58697;SDS011;44475;53.206;-6.106;2024-01-06T09:06:44;2.88;;;1.30;;
58697;SDS011;44475;53.206;-6.106;2024-01-06T09:09:12;1.67;;;1.20;;
58697;SDS011;44475;53.206;-6.106;2024-01-06T09:11:39;2.70;;;1.08;;
58697;SDS011;44475;53.206;-6.106;2024-01-06T09:14:06;1.58;;;1.10;;
58697;SDS011;44475;53.206;-6.106;2024-01-06T09:16:33;2.17;;;1.30;;
58697;SDS011;44475;53.206;-6.106;2024-01-06T09:18:59;1.63;;;1.10;;
58697;SDS011;44475;53.206;-6.106;2024-01-06T09:21:25;1.55;;;1.10;;
58697;SDS011;44475;53.206;-6.106;2024-01-06T09:23:51;1.48;;;1.05;;
58697;SDS011;44475;53.206;-6.106;2024-01-06T09:26:18;2.85;;;1.30;;
58697;SDS011;44475;53.206;-6.106;2024-01-06T09:28:44;4.95;;;1.50;;
58697;SDS011;44475;53.206;-6.106;2024-01-06T09:31:11;3.70;;;1.20;;
58697;SDS011;44475;53.206;-6.106;2024-01-06T09:33:38;2.55;;;1.27;;
58697;SDS011;44475;53.206;-6.106;2024-01-06T09:36:05;3.75;;;1.40;;
58697;SDS011;44475;53.206;-6.106;2024-01-06T09:38:32;7.30;;;1.38;;
58697;SDS011;44475;53.206;-6.106;2024-01-06T09:40:58;1.42;;;1.20;;
58697;SDS011;44475;53.206;-6.106;2024-01-06T09:43:24;2.78;;;1.20;;
58697;SDS011;44475;53.206;-6.106;2024-01-06T09:46:02;4.53;;;1.30;;
58697;SDS011;44475;53.206;-6.106;2024-01-06T09:48:38;3.90;;;1.13;;
58697;SDS011;44475;53.206;-6.106;2024-01-06T09:51:11;3.70;;;1.13;;
58697;SDS011;44475;53.206;-6.106;2024-01-06T09:53:57;5.72;;;1.45;;
58697;SDS011;44475;53.206;-6.106;2024-01-06T09:56:25;2.05;;;1.27;;
58697;SDS011;44475;53.206;-6.106;2024-01-06T09:58:53;13.23;;;1.52;;
58697;SDS011;44475;53.206;-6.106;2024-01-06T10:01:23;8.50;;;1.50;;
58697;SDS011;44475;53.206;-6.106;2024-01-06T10:03:50;12.73;;;1.70;;
58697;SDS011;44475;53.206;-6.106;2024-01-06T10:06:17;2.90;;;1.60;;
58697;SDS011;44475;53.206;-6.106;2024-01-06T10:08:44;6.00;;;1.50;;
58697;SDS011;44475;53.206;-6.106;2024-01-06T10:11:14;8.02;;;1.55;;
58697;SDS011;44475;53.206;-6.106;2024-01-06T10:13:40;2.60;;;1.30;;
58697;SDS011;44475;53.206;-6.106;2024-01-06T10:16:06;5.97;;;1.50;;
58697;SDS011;44475;53.206;-6.106;2024-01-06T10:18:33;2.50;;;1.20;;
58697;SDS011;44475;53.206;-6.106;2024-01-06T10:21:04;3.90;;;1.25;;
58697;SDS011;44475;53.206;-6.106;2024-01-06T10:23:31;2.65;;;1.30;;
58697;SDS011;44475;53.206;-6.106;2024-01-06T10:25:59;3.45;;;1.40;;
58697;SDS011;44475;53.206;-6.106;2024-01-06T10:28:25;4.68;;;1.63;;
58697;SDS011;44475;53.206;-6.106;2024-01-06T10:30:52;2.05;;;1.40;;
58697;SDS011;44475;53.206;-6.106;2024-01-06T10:33:22;3.10;;;1.40;;
58697;SDS011;44475;53.206;-6.106;2024-01-06T10:35:49;3.10;;;1.40;;
58697;SDS011;44475;53.206;-6.106;2024-01-06T10:38:17;3.25;;;1.27;;
58697;SDS011;44475;53.206;-6.106;2024-01-06T10:41:17;3.88;;;1.30;;
58697;SDS011;44475;53.206;-6.106;2024-01-06T10:43:36;2.28;;;1.40;;
58697;SDS011;44475;53.206;-6.106;2024-01-06T10:46:07;1.63;;;1.30;;
58697;SDS011;44475;53.206;-6.106;2024-01-06T10:48:37;3.58;;;1.27;;
58697;SDS011;44475;53.206;-6.106;2024-01-06T10:51:08;3.45;;;1.30;;
58697;SDS011;44475;53.206;-6.106;2024-01-06T10:53:35;2.22;;;1.20;;
58697;SDS011;44475;53.206;-6.106;2024-01-06T10:56:03;2.78;;;1.30;;
58697;SDS011;44475;53.206;-6.106;2024-01-06T10:58:32;2.17;;;1.23;;
58697;SDS011;44475;53.206;-6.106;2024-01-06T11:01:03;4.65;;;1.38;;
58697;SDS011;44475;53.206;-6.106;2024-01-06T11:03:30;3.47;;;1.20;;
58697;SDS011;44475;53.206;-6.106;2024-01-06T11:05:58;2.65;;;1.10;;
58697;SDS011;44475;53.206;-6.106;2024-01-06T11:08:24;4.95;;;1.40;;
58697;SDS011;44475;53.206;-6.106;2024-01-06T11:10:53;3.13;;;1.38;;
58697;SDS011;44475;53.206;-6.106;2024-01-06T11:13:23;1.90;;;1.30;;
58697;SDS011;44475;53.206;-6.106;2024-01-06T11:15:51;2.20;;;1.38;;
58697;SDS011;44475;53.206;-6.106;2024-01-06T11:26:32;1.40;;;1.15;;
58697;SDS011;44475;53.206;-6.106;2024-01-06T11:28:59;2.13;;;1.23;;
58697;SDS011;44475;53.206;-6.106;2024-01-06T11:31:32;1.73;;;1.20;;
58697;SDS011;44475;53.206;-6.106;2024-01-06T11:34:18;1.42;;;1.13;;
58697;SDS011;44475;53.206;-6.106;2024-01-06T11:36:47;5.40;;;1.33;;
58697;SDS011;44475;53.206;-6.106;2024-01-06T13:49:12;2.47;;;1.40;;
58697;SDS011;44475;53.206;-6.106;2024-01-06T13:51:42;2.10;;;1.38;;
58697;SDS011;44475;53.206;-6.106;2024-01-06T13:54:12;2.80;;;1.20;;
58697;SDS011;44475;53.206;-6.106;2024-01-06T13:56:41;3.75;;;1.58;;
58697;SDS011;44475;53.206;-6.106;2024-01-06T13:59:08;2.13;;;1.38;;
58697;SDS011;44475;53.206;-6.106;2024-01-06T14:01:35;3.85;;;1.73;;
58697;SDS011;44475;53.206;-6.106;2024-01-06T14:04:03;2.13;;;1.30;;
58697;SDS011;44475;53.206;-6.106;2024-01-06T14:06:34;1.60;;;1.23;;
58697;SDS011;44475;53.206;-6.106;2024-01-06T14:09:06;2.45;;;1.38;;
58697;SDS011;44475;53.206;-6.106;2024-01-06T14:11:34;2.75;;;1.40;;
58697;SDS011;44475;53.206;-6.106;2024-01-06T14:14:01;3.47;;;1.38;;
58697;SDS011;44475;53.206;-6.106;2024-01-06T14:16:28;2.05;;;1.35;;
58697;SDS011;44475;53.206;-6.106;2024-01-06T14:18:55;1.92;;;1.30;;
58697;SDS011;44475;53.206;-6.106;2024-01-06T14:21:23;2.85;;;1.40;;
58697;SDS011;44475;53.206;-6.106;2024-01-06T14:23:50;2.47;;;1.30;;
58697;SDS011;44475;53.206;-6.106;2024-01-06T14:26:17;1.50;;;1.20;;
58697;SDS011;44475;53.206;-6.106;2024-01-06T14:28:48;2.58;;;1.40;;
58697;SDS011;44475;53.206;-6.106;2024-01-06T14:31:15;1.50;;;1.17;;
58697;SDS011;44475;53.206;-6.106;2024-01-06T14:33:42;2.08;;;1.30;;
58697;SDS011;44475;53.206;-6.106;2024-01-06T14:36:08;2.45;;;1.38;;
58697;SDS011;44475;53.206;-6.106;2024-01-06T14:38:35;2.67;;;1.30;;
58697;SDS011;44475;53.206;-6.106;2024-01-06T14:41:02;1.98;;;1.30;;
58697;SDS011;44475;53.206;-6.106;2024-01-06T14:43:29;2.17;;;1.42;;
58697;SDS011;44475;53.206;-6.106;2024-01-06T14:45:56;2.03;;;1.40;;
58697;SDS011;44475;53.206;-6.106;2024-01-06T14:48:22;1.50;;;1.20;;
58697;SDS011;44475;53.206;-6.106;2024-01-06T14:50:49;2.22;;;1.40;;
58697;SDS011;44475;53.206;-6.106;2024-01-06T14:53:16;3.03;;;1.42;;
58697;SDS011;44475;53.206;-6.106;2024-01-06T14:55:43;2.15;;;1.33;;
58697;SDS011;44475;53.206;-6.106;2024-01-06T14:58:10;2.03;;;1.50;;
58697;SDS011;44475;53.206;-6.106;2024-01-06T15:00:37;2.20;;;1.38;;
58697;SDS011;44475;53.206;-6.106;2024-01-06T15:03:04;2.70;;;1.50;;
58697;SDS011;44475;53.206;-6.106;2024-01-06T15:05:30;1.98;;;1.30;;
58697;SDS011;44475;53.206;-6.106;2024-01-06T15:07:57;2.17;;;1.42;;
58697;SDS011;44475;53.206;-6.106;2024-01-06T15:10:23;2.00;;;1.40;;
58697;SDS011;44475;53.206;-6.106;2024-01-06T15:12:50;2.60;;;1.50;;
58697;SDS011;44475;53.206;-6.106;2024-01-06T15:15:16;1.95;;;1.40;;
58697;SDS011;44475;53.206;-6.106;2024-01-06T15:17:43;2.33;;;1.50;;
58697;SDS011;44475;53.206;-6.106;2024-01-06T15:20:10;4.40;;;1.73;;
58697;SDS011;44475;53.206;-6.106;2024-01-06T15:22:38;2.63;;;1.42;;
58697;SDS011;44475;53.206;-6.106;2024-01-06T15:25:04;2.47;;;1.60;;
58697;SDS011;44475;53.206;-6.106;2024-01-06T15:27:32;2.05;;;1.50;;
58697;SDS011;44475;53.206;-6.106;2024-01-06T15:29:59;1.50;;;1.40;;
58697;SDS011;44475;53.206;-6.106;2024-01-06T15:32:28;3.40;;;1.52;;
58697;SDS011;44475;53.206;-6.106;2024-01-06T15:34:55;2.25;;;1.42;;
58697;SDS011;44475;53.206;-6.106;2024-01-06T15:37:21;2.00;;;1.40;;
58697;SDS011;44475;53.206;-6.106;2024-01-06T15:39:48;2.30;;;1.42;;
58697;SDS011;44475;53.206;-6.106;2024-01-06T15:42:15;1.88;;;1.48;;
58697;SDS011;44475;53.206;-6.106;2024-01-06T15:44:42;2.67;;;1.55;;
58697;SDS011;44475;53.206;-6.106;2024-01-06T15:47:09;2.67;;;1.58;;
58697;SDS011;44475;53.206;-6.106;2024-01-06T15:49:37;2.05;;;1.60;;
58697;SDS011;44475;53.206;-6.106;2024-01-06T15:52:03;3.70;;;1.60;;
58697;SDS011;44475;53.206;-6.106;2024-01-06T15:54:33;2.35;;;1.50;;
58697;SDS011;44475;53.206;-6.106;2024-01-06T15:56:59;2.80;;;1.50;;
58697;SDS011;44475;53.206;-6.106;2024-01-06T15:59:26;1.92;;;1.40;;
58697;SDS011;44475;53.206;-6.106;2024-01-06T16:01:53;2.35;;;1.40;;
58697;SDS011;44475;53.206;-6.106;2024-01-06T16:04:19;2.45;;;1.48;;
58697;SDS011;44475;53.206;-6.106;2024-01-06T16:06:46;3.47;;;1.50;;
58697;SDS011;44475;53.206;-6.106;2024-01-06T16:09:16;2.38;;;1.50;;
58697;SDS011;44475;53.206;-6.106;2024-01-06T16:11:43;1.50;;;1.38;;
58697;SDS011;44475;53.206;-6.106;2024-01-06T16:14:09;2.05;;;1.50;;
58697;SDS011;44475;53.206;-6.106;2024-01-06T16:16:37;3.30;;;1.50;;
58697;SDS011;44475;53.206;-6.106;2024-01-06T16:19:04;2.72;;;1.52;;
58697;SDS011;44475;53.206;-6.106;2024-01-06T16:21:30;2.35;;;1.50;;
58697;SDS011;44475;53.206;-6.106;2024-01-06T16:23:57;2.88;;;1.70;;
58697;SDS011;44475;53.206;-6.106;2024-01-06T16:26:25;2.30;;;1.60;;
58697;SDS011;44475;53.206;-6.106;2024-01-06T16:28:52;3.08;;;1.70;;
58697;SDS011;44475;53.206;-6.106;2024-01-06T16:31:19;2.60;;;1.67;;
58697;SDS011;44475;53.206;-6.106;2024-01-06T16:33:46;2.40;;;1.70;;
58697;SDS011;44475;53.206;-6.106;2024-01-06T16:36:12;2.80;;;1.70;;
58697;SDS011;44475;53.206;-6.106;2024-01-06T16:38:39;2.58;;;1.70;;
58697;SDS011;44475;53.206;-6.106;2024-01-06T16:41:06;2.78;;;1.75;;
58697;SDS011;44475;53.206;-6.106;2024-01-06T16:43:33;2.35;;;1.70;;
58697;SDS011;44475;53.206;-6.106;2024-01-06T16:46:03;2.97;;;1.80;;
58697;SDS011;44475;53.206;-6.106;2024-01-06T16:48:31;3.13;;;1.60;;
58697;SDS011;44475;53.206;-6.106;2024-01-06T16:50:58;2.95;;;1.80;;
58697;SDS011;44475;53.206;-6.106;2024-01-06T16:53:25;2.25;;;1.63;;
58697;SDS011;44475;53.206;-6.106;2024-01-06T16:55:52;2.90;;;1.80;;
58697;SDS011;44475;53.206;-6.106;2024-01-06T16:58:18;2.10;;;1.63;;
58697;SDS011;44475;53.206;-6.106;2024-01-06T17:00:45;2.55;;;1.85;;